Time;durP1;ratioP1;P1;durP2;ratioP2;P2;SDS_P1;SDS_P2;PMS_P1;PMS_P2;Temp;Humidity;BMP_temperature;BMP_pressure;BME280_temperature;BME280_humidity;BME280_pressure;Samples;Min_cycle;Max_cycle;Signal;HPM_P1;HPM_P2
2022/12/23 00:02:18;;;;;;;0.10;0.10;;;;;;;9.56;94.16;94689.66;4336670;32;20197;-57
2022/12/23 00:04:43;;;;;;;0.37;0.37;;;;;;;9.61;94.45;94686.88;4327219;33;20210;-58
2022/12/23 00:07:09;;;;;;;0.40;0.40;;;;;;;9.59;94.48;94677.69;4337439;33;20237;-58
2022/12/23 00:09:34;;;;;;;0.30;0.30;;;;;;;9.55;95.00;94674.88;4343390;33;20193;-58
2022/12/23 00:17:27;;;;;;;0.13;0.13;;;;;;;9.44;95.91;94641.78;4333772;32;20219;-58
2022/12/23 00:19:52;;;;;;;0.63;0.60;;;;;;;9.56;95.76;94647.28;4337345;32;20258;-58
2022/12/23 00:22:17;;;;;;;0.33;0.27;;;;;;;9.55;95.81;94645.75;4332902;33;20200;-58
2022/12/23 00:24:43;;;;;;;0.10;0.10;;;;;;;9.48;95.96;94648.03;4341336;32;20186;-58
2022/12/23 00:27:08;;;;;;;0.10;0.10;;;;;;;9.53;96.06;94645.28;4340488;32;20185;-58
2022/12/23 00:29:33;;;;;;;0.37;0.27;;;;;;;9.45;96.35;94643.34;4316016;32;21678;-58
2022/12/23 00:31:59;;;;;;;1.03;0.53;;;;;;;9.42;96.73;94630.69;4336079;32;20178;-59
2022/12/23 00:34:24;;;;;;;0.10;0.10;;;;;;;9.45;96.45;94643.34;4339103;32;20275;-58
2022/12/23 00:36:49;;;;;;;9.00;0.30;;;;;;;9.50;96.45;94637.94;4344602;32;20189;-58
2022/12/23 00:44:42;;;;;;;0.07;0.07;;;;;;;9.22;97.89;94616.09;4345959;32;20243;-60
2022/12/23 00:49:40;;;;;;;0.73;0.63;;;;;;;9.15;98.34;94612.31;4338396;32;20204;-58
2022/12/23 00:49:53;;;;;;;2.17;0.57;;;;;;;9.32;97.35;94599.22;4347532;32;20283;-57
2022/12/23 00:52:18;;;;;;;0.10;0.10;;;;;;;9.27;96.96;94597.47;4339385;32;20213;-58
2022/12/23 00:54:43;;;;;;;0.03;0.03;;;;;;;9.04;97.89;94580.03;4347877;32;20205;-58
2022/12/23 00:57:09;;;;;;;0.20;0.20;;;;;;;8.99;97.85;94574.06;4341524;32;20213;-57
2022/12/23 00:59:35;;;;;;;0.13;0.13;;;;;;;8.99;98.18;94579.38;4339664;32;20319;-57
2022/12/23 01:07:28;;;;;;;0.00;0.00;;;;;;;8.99;98.03;94574.06;4338345;32;20237;-58
2022/12/23 01:09:53;;;;;;;0.10;0.10;;;;;;;8.92;98.86;94583.22;4340893;32;20193;-58
2022/12/23 01:12:19;;;;;;;0.50;0.50;;;;;;;8.98;98.39;94577.81;4341535;32;20197;-58
2022/12/23 01:14:44;;;;;;;0.27;0.27;;;;;;;9.02;98.11;94568.19;4346345;32;20194;-58
2022/12/23 01:17:10;;;;;;;0.13;0.13;;;;;;;8.83;98.87;94555.16;4334557;33;20219;-58
2022/12/23 01:19:35;;;;;;;0.23;0.23;;;;;;;8.85;98.98;94553.00;4341187;32;20231;-58
2022/12/23 01:22:01;;;;;;;0.10;0.10;;;;;;;8.76;99.61;94555.56;4338208;32;20202;-58
2022/12/23 01:24:28;;;;;;;0.40;0.40;;;;;;;8.84;99.62;94565.44;4345128;32;20189;-58
2022/12/23 01:26:54;;;;;;;0.10;0.10;;;;;;;8.93;99.35;94563.62;4333809;32;20207;-58
2022/12/23 01:29:19;;;;;;;0.20;0.20;;;;;;;8.91;99.23;94557.88;4344850;32;20181;-58
2022/12/23 01:31:44;;;;;;;0.10;0.10;;;;;;;8.90;99.05;94556.31;4355858;32;20201;-58
2022/12/23 01:34:10;;;;;;;0.20;0.20;;;;;;;8.95;98.86;94564.09;4348266;32;20212;-58
2022/12/23 01:36:35;;;;;;;0.33;0.33;;;;;;;9.06;98.22;94561.22;4341618;32;20194;-58
2022/12/23 01:39:00;;;;;;;0.07;0.07;;;;;;;9.04;98.21;94558.09;4340298;32;20189;-58
2022/12/23 01:44:51;;;;;;;0.00;0.00;;;;;;;9.03;97.68;94548.59;4348214;32;20211;-59
2022/12/23 01:47:25;;;;;;;0.00;0.00;;;;;;;8.88;98.72;94547.88;4333947;32;20203;-58
2022/12/23 01:50:07;;;;;;;0.53;0.20;;;;;;;8.89;98.93;94557.38;4329333;32;20200;-57
2022/12/23 01:52:37;;;;;;;1.07;0.50;;;;;;;8.88;99.06;94557.69;4331123;32;20284;-58
2022/12/23 01:55:03;;;;;;;0.00;0.00;;;;;;;8.99;98.40;94552.91;4341833;32;20285;-58
2022/12/23 01:57:29;;;;;;;0.13;0.13;;;;;;;9.00;98.21;94554.47;4336438;32;20212;-58
2022/12/23 02:05:25;;;;;;;0.20;0.20;;;;;;;9.13;97.96;94564.22;4337335;32;20232;-58
2022/12/23 02:10:55;;;;;;;0.00;0.00;;;;;;;8.88;98.42;94569.03;4342859;32;20204;-57
2022/12/23 02:16:15;;;;;;;0.30;0.30;;;;;;;9.00;98.35;94565.06;4339664;32;20190;-58
2022/12/23 02:16:42;;;;;;;0.40;0.20;;;;;;;8.92;99.02;94561.28;4347453;32;20177;-58
2022/12/23 02:19:13;;;;;;;4.37;0.53;;;;;;;8.88;99.60;94563.75;4342274;32;20185;-58
2022/12/23 02:21:55;;;;;;;0.40;0.40;;;;;;;8.96;99.17;94565.66;4345758;32;20189;-58
2022/12/23 02:24:49;;;;;;;0.40;0.40;;;;;;;9.07;98.85;94563.56;4343145;32;20211;-57
2022/12/23 02:27:15;;;;;;;0.10;0.10;;;;;;;9.15;98.73;94562.81;4338120;32;20185;-58
2022/12/23 02:30:14;;;;;;;0.40;0.17;;;;;;;9.02;99.18;94563.69;4361744;32;20193;-58
2022/12/23 02:33:05;;;;;;;0.20;0.20;;;;;;;8.93;99.77;94562.84;4332275;32;20188;-58
2022/12/23 02:35:44;;;;;;;0.00;0.00;;;;;;;8.85;100.00;94569.63;4328646;32;20193;-59
2022/12/23 02:38:27;;;;;;;0.37;0.33;;;;;;;8.96;100.00;94572.81;4340183;32;20189;-58
2022/12/23 02:41:05;;;;;;;0.00;0.00;;;;;;;8.94;100.00;94567.03;4345998;32;20239;-58
2022/12/23 02:43:42;;;;;;;0.00;0.00;;;;;;;8.96;100.00;94567.53;4347701;32;20197;-58
2022/12/23 02:46:12;;;;;;;0.10;0.10;;;;;;;8.86;100.00;94568.56;4335703;32;20181;-58
2022/12/23 02:48:56;;;;;;;0.30;0.30;;;;;;;9.00;100.00;94567.69;4338868;32;20198;-58
2022/12/23 02:51:29;;;;;;;0.57;0.33;;;;;;;9.02;100.00;94568.97;4341610;32;20197;-58
2022/12/23 02:53:58;;;;;;;0.03;0.03;;;;;;;8.96;100.00;94576.25;4340919;32;20189;-58
2022/12/23 02:56:26;;;;;;;0.10;0.10;;;;;;;8.96;100.00;94570.16;4335040;32;20300;-58
2022/12/23 02:59:14;;;;;;;0.03;0.03;;;;;;;8.93;100.00;94571.56;4343448;32;20285;-58
2022/12/23 03:01:42;;;;;;;1.30;0.47;;;;;;;9.03;100.00;94572.41;4346498;32;20197;-58
2022/12/23 03:04:08;;;;;;;0.00;0.00;;;;;;;9.04;100.00;94587.19;4342397;32;20197;-59
2022/12/23 03:06:43;;;;;;;0.10;0.10;;;;;;;9.16;100.00;94569.66;4344893;32;20274;-59
2022/12/23 03:09:16;;;;;;;0.00;0.00;;;;;;;9.18;100.00;94570.16;4342619;32;20196;-59
2022/12/23 03:12:10;;;;;;;0.20;0.20;;;;;;;9.29;100.00;94568.84;4348109;32;20303;-58
2022/12/23 03:15:13;;;;;;;0.00;0.00;;;;;;;9.30;100.00;94577.56;4324715;32;20193;-59
2022/12/23 03:18:27;;;;;;;0.00;0.00;;;;;;;9.49;100.00;94572.81;4312814;32;20188;-59
2022/12/23 03:21:21;;;;;;;0.07;0.07;;;;;;;9.52;100.00;94568.78;4327037;32;20173;-58
2022/12/23 03:24:10;;;;;;;0.00;0.00;;;;;;;9.48;100.00;94567.81;4334004;32;20286;-59
2022/12/23 03:26:41;;;;;;;0.10;0.10;;;;;;;9.52;100.00;94566.16;4355300;32;20204;-58
2022/12/23 03:29:18;;;;;;;0.00;0.00;;;;;;;9.50;100.00;94571.75;4336421;32;20275;-58
2022/12/23 03:31:46;;;;;;;0.10;0.10;;;;;;;9.55;100.00;94571.63;4333833;32;20189;-59
2022/12/23 03:34:17;;;;;;;0.00;0.00;;;;;;;9.62;100.00;94571.94;4355112;32;20181;-59
2022/12/23 03:36:49;;;;;;;0.00;0.00;;;;;;;9.68;100.00;94572.59;4346110;32;20185;-59
2022/12/23 03:39:20;;;;;;;0.00;0.00;;;;;;;9.72;100.00;94576.19;4337949;32;20193;-58
2022/12/23 03:41:51;;;;;;;0.00;0.00;;;;;;;9.75;100.00;94580.88;4345067;32;20185;-57
2022/12/23 03:44:25;;;;;;;0.00;0.00;;;;;;;9.82;100.00;94575.91;4343670;32;20228;-57
2022/12/23 03:47:01;;;;;;;0.00;0.00;;;;;;;9.77;100.00;94580.59;4353463;32;20219;-58
2022/12/23 03:49:32;;;;;;;0.00;0.00;;;;;;;9.76;100.00;94581.66;4343503;32;20185;-58
2022/12/23 03:52:05;;;;;;;0.20;0.20;;;;;;;9.82;100.00;94585.72;4343310;32;20233;-58
2022/12/23 03:54:47;;;;;;;0.00;0.00;;;;;;;9.90;100.00;94588.41;4346978;32;20208;-58
2022/12/23 03:57:13;;;;;;;0.00;0.00;;;;;;;9.87;100.00;94593.53;4329043;32;20193;-57
2022/12/23 03:59:45;;;;;;;0.07;0.07;;;;;;;9.96;100.00;94594.38;4329034;33;20208;-58
2022/12/23 04:02:31;;;;;;;0.00;0.00;;;;;;;9.99;100.00;94596.37;4346079;32;20211;-57
2022/12/23 04:05:09;;;;;;;0.10;0.10;;;;;;;9.99;100.00;94609.63;4349229;32;20243;-58
2022/12/23 04:07:55;;;;;;;0.00;0.00;;;;;;;9.98;100.00;94594.81;4338444;32;20211;-57
2022/12/23 04:10:22;;;;;;;0.00;0.00;;;;;;;9.92;100.00;94598.72;4339996;32;20189;-57
2022/12/23 04:12:48;;;;;;;0.10;0.10;;;;;;;9.93;100.00;94601.06;4350888;32;20206;-58
2022/12/23 04:15:18;;;;;;;0.03;0.03;;;;;;;10.03;100.00;94604.50;4336455;32;20204;-58
2022/12/23 04:17:44;;;;;;;0.13;0.13;;;;;;;10.05;100.00;94604.97;4344586;32;20203;-57
2022/12/23 04:20:09;;;;;;;0.20;0.20;;;;;;;10.10;100.00;94605.63;4358057;32;20186;-57
2022/12/23 04:22:35;;;;;;;0.00;0.00;;;;;;;10.15;100.00;94610.00;4344214;32;20225;-57
2022/12/23 04:25:00;;;;;;;0.00;0.00;;;;;;;10.09;100.00;94606.72;4355405;32;20213;-58
2022/12/23 04:27:25;;;;;;;0.10;0.10;;;;;;;10.02;100.00;94624.91;4344070;32;20228;-57
2022/12/23 04:29:50;;;;;;;0.00;0.00;;;;;;;9.99;100.00;94612.28;4346038;32;20193;-57
2022/12/23 04:32:16;;;;;;;0.07;0.07;;;;;;;10.12;100.00;94615.91;4335657;32;20193;-58
2022/12/23 04:34:41;;;;;;;0.00;0.00;;;;;;;10.12;100.00;94613.25;4340855;32;20194;-57
2022/12/23 04:37:06;;;;;;;0.00;0.00;;;;;;;10.14;100.00;94619.03;4335157;32;20205;-57
2022/12/23 04:39:32;;;;;;;0.00;0.00;;;;;;;10.14;100.00;94614.53;4346008;32;21684;-58
2022/12/23 04:41:57;;;;;;;0.00;0.00;;;;;;;10.18;100.00;94612.81;4331704;32;20288;-58
2022/12/23 04:44:22;;;;;;;0.00;0.00;;;;;;;10.27;100.00;94624.25;4338950;32;20308;-57
2022/12/23 04:46:48;;;;;;;0.00;0.00;;;;;;;10.20;100.00;94617.81;4342070;32;20249;-58
2022/12/23 04:49:13;;;;;;;0.00;0.00;;;;;;;10.24;100.00;94624.84;4345137;32;20235;-59
2022/12/23 04:51:38;;;;;;;0.00;0.00;;;;;;;10.32;100.00;94621.47;4340678;32;20193;-57
2022/12/23 04:54:03;;;;;;;0.00;0.00;;;;;;;10.28;100.00;94631.12;4353112;32;20197;-57
2022/12/23 04:56:29;;;;;;;0.00;0.00;;;;;;;10.22;100.00;94637.63;4334909;32;20193;-58
2022/12/23 04:58:54;;;;;;;0.10;0.10;;;;;;;10.20;100.00;94641.69;4340989;32;20201;-57
2022/12/23 05:01:19;;;;;;;0.00;0.00;;;;;;;10.25;100.00;94631.72;4338741;32;20262;-58
2022/12/23 05:03:45;;;;;;;0.00;0.00;;;;;;;10.17;100.00;94635.13;4345555;32;20240;-58
2022/12/23 05:06:11;;;;;;;0.00;0.00;;;;;;;10.25;100.00;94639.69;4341374;32;20252;-57
2022/12/23 05:08:36;;;;;;;0.00;0.00;;;;;;;10.37;100.00;94635.66;4348710;32;20204;-58
2022/12/23 05:11:01;;;;;;;0.00;0.00;;;;;;;10.23;100.00;94630.47;4340684;32;20190;-57
2022/12/23 05:13:27;;;;;;;0.07;0.07;;;;;;;10.35;100.00;94635.97;4333150;32;20265;-57
2022/12/23 05:15:53;;;;;;;0.00;0.00;;;;;;;10.29;100.00;94634.53;4347265;32;20219;-58
2022/12/23 05:18:20;;;;;;;0.00;0.00;;;;;;;10.30;100.00;94634.25;4351918;32;20211;-58
2022/12/23 05:20:45;;;;;;;0.10;0.10;;;;;;;10.32;100.00;94637.38;4334440;32;20204;-58
2022/12/23 05:23:11;;;;;;;0.00;0.00;;;;;;;10.41;100.00;94639.25;4354215;32;20185;-58
2022/12/23 05:25:37;;;;;;;0.00;0.00;;;;;;;10.44;100.00;94639.41;4356723;32;20196;-58
2022/12/23 05:28:03;;;;;;;0.00;0.00;;;;;;;10.35;100.00;94637.84;4337114;32;20185;-58
2022/12/23 05:30:29;;;;;;;0.00;0.00;;;;;;;10.38;100.00;94634.59;4335054;32;20193;-57
2022/12/23 05:32:55;;;;;;;0.00;0.00;;;;;;;10.44;100.00;94636.75;4330871;32;20228;-58
2022/12/23 05:35:22;;;;;;;0.00;0.00;;;;;;;10.41;100.00;94642.66;4344750;32;20189;-58
2022/12/23 05:37:48;;;;;;;0.00;0.00;;;;;;;10.32;100.00;94644.53;4346400;32;20256;-58
2022/12/23 05:40:13;;;;;;;0.00;0.00;;;;;;;10.38;100.00;94650.50;4335544;32;20229;-61
2022/12/23 05:42:39;;;;;;;0.00;0.00;;;;;;;10.26;100.00;94646.53;4335472;32;20233;-57
2022/12/23 05:45:05;;;;;;;0.20;0.20;;;;;;;10.22;100.00;94645.59;4341226;32;20197;-58
2022/12/23 05:47:30;;;;;;;0.00;0.00;;;;;;;10.25;100.00;94650.28;4339322;32;20194;-57
2022/12/23 05:49:55;;;;;;;0.00;0.00;;;;;;;10.36;100.00;94653.44;4346385;32;20186;-57
2022/12/23 05:52:21;;;;;;;0.10;0.10;;;;;;;10.33;100.00;94654.84;4344435;32;20208;-58
2022/12/23 05:54:46;;;;;;;0.00;0.00;;;;;;;10.36;100.00;94658.75;4332884;32;20220;-58
2022/12/23 05:57:11;;;;;;;0.10;0.10;;;;;;;10.45;100.00;94651.56;4339855;32;20193;-57
2022/12/23 05:59:37;;;;;;;0.10;0.10;;;;;;;10.41;100.00;94658.59;4342801;32;20197;-57
2022/12/23 06:02:03;;;;;;;0.30;0.23;;;;;;;10.33;100.00;94654.84;4338411;32;20325;-58
2022/12/23 06:04:28;;;;;;;0.00;0.00;;;;;;;10.38;100.00;94656.56;4331264;32;20198;-58
2022/12/23 06:06:53;;;;;;;0.20;0.20;;;;;;;10.36;100.00;94655.31;4340122;32;20243;-57
2022/12/23 06:09:19;;;;;;;0.10;0.10;;;;;;;10.43;100.00;94656.41;4344276;32;20193;-60
2022/12/23 06:11:44;;;;;;;0.00;0.00;;;;;;;10.53;100.00;94664.09;4334820;32;20263;-58
2022/12/23 06:14:09;;;;;;;0.53;0.20;;;;;;;10.49;100.00;94663.13;4347397;32;20249;-58
2022/12/23 06:16:35;;;;;;;0.20;0.20;;;;;;;10.40;100.00;94672.16;4341491;32;20189;-58
2022/12/23 06:19:02;;;;;;;0.00;0.00;;;;;;;10.42;100.00;94675.28;4331650;32;20209;-57
2022/12/23 06:21:27;;;;;;;2.53;0.30;;;;;;;10.56;100.00;94678.59;4334799;32;20220;-57
2022/12/23 06:23:54;;;;;;;0.00;0.00;;;;;;;10.58;100.00;94682.53;4342283;32;20240;-57
2022/12/23 06:26:19;;;;;;;0.00;0.00;;;;;;;10.56;100.00;94687.34;4337654;32;20197;-58
2022/12/23 06:28:44;;;;;;;0.00;0.00;;;;;;;10.55;100.00;94682.34;4327962;32;20207;-58
2022/12/23 06:31:10;;;;;;;0.00;0.00;;;;;;;10.58;100.00;94682.53;4344055;32;20189;-58
2022/12/23 06:33:35;;;;;;;0.00;0.00;;;;;;;10.54;100.00;94691.41;4327542;32;20207;-58
2022/12/23 06:36:00;;;;;;;0.00;0.00;;;;;;;10.62;100.00;94686.09;4337550;32;20189;-58
2022/12/23 06:38:26;;;;;;;0.10;0.10;;;;;;;10.49;100.00;94694.19;4343102;32;20227;-58
2022/12/23 06:40:51;;;;;;;0.00;0.00;;;;;;;10.49;100.00;94696.81;4339869;32;20177;-58
2022/12/23 06:43:17;;;;;;;0.10;0.10;;;;;;;10.54;100.00;94702.00;4338538;32;20227;-58
2022/12/23 06:45:47;;;;;;;0.00;0.00;;;;;;;10.49;100.00;94720.69;4335230;32;20193;-58
2022/12/23 06:48:12;;;;;;;0.00;0.00;;;;;;;10.58;100.00;94719.66;4355972;32;20219;-58
2022/12/23 06:50:37;;;;;;;0.00;0.00;;;;;;;10.60;100.00;94724.63;4335638;32;20198;-58
2022/12/23 06:53:03;;;;;;;0.00;0.00;;;;;;;10.67;100.00;94733.69;4347961;32;20298;-59
2022/12/23 06:55:28;;;;;;;0.00;0.00;;;;;;;10.66;100.00;94732.13;4334254;32;20218;-58
2022/12/23 06:57:53;;;;;;;0.20;0.20;;;;;;;10.62;100.00;94735.72;4338588;32;20278;-58
2022/12/23 07:00:19;;;;;;;0.17;0.10;;;;;;;10.58;100.00;94737.44;4331782;32;20243;-58
2022/12/23 07:02:44;;;;;;;0.00;0.00;;;;;;;10.68;100.00;94742.44;4339900;32;20189;-58
2022/12/23 07:05:10;;;;;;;0.00;0.00;;;;;;;10.68;100.00;94747.75;4338471;32;20253;-58
2022/12/23 07:07:35;;;;;;;0.00;0.00;;;;;;;10.63;100.00;94756.63;4350179;32;20200;-58
2022/12/23 07:10:00;;;;;;;0.13;0.13;;;;;;;10.77;100.00;94761.84;4333463;32;20201;-58
2022/12/23 07:12:26;;;;;;;0.00;0.00;;;;;;;10.79;100.00;94746.38;4340427;32;20239;-58
2022/12/23 07:14:51;;;;;;;0.30;0.20;;;;;;;10.75;100.00;94758.69;4339497;32;20189;-58
2022/12/23 07:17:16;;;;;;;1.50;1.03;;;;;;;10.80;100.00;94763.09;4346526;32;20193;-44
2022/12/23 07:19:42;;;;;;;0.10;0.10;;;;;;;11.01;100.00;94769.38;4339853;32;20240;-45
2022/12/23 07:22:09;;;;;;;0.60;0.60;;;;;;;11.23;100.00;94776.44;4338459;32;20192;-44
2022/12/23 07:24:34;;;;;;;0.00;0.00;;;;;;;11.44;100.00;94772.06;4338486;32;20205;-48
2022/12/23 07:26:59;;;;;;;0.00;0.00;;;;;;;11.61;100.00;94779.28;4330315;32;20206;-45
2022/12/23 07:29:25;;;;;;;0.00;0.00;;;;;;;11.62;98.52;94778.19;4334696;32;20202;-46
2022/12/23 07:31:50;;;;;;;0.37;0.37;;;;;;;11.86;97.60;94778.50;4333367;32;20189;-47
2022/12/23 07:34:15;;;;;;;0.47;0.47;;;;;;;12.13;95.76;94780.03;4342666;32;20213;-46
2022/12/23 07:36:41;;;;;;;0.00;0.00;;;;;;;12.32;94.55;94785.00;4339672;32;20206;-48
2022/12/23 07:39:06;;;;;;;0.10;0.10;;;;;;;12.31;94.51;94781.56;4327710;32;20340;-47
2022/12/23 07:41:31;;;;;;;0.00;0.00;;;;;;;12.43;94.23;94780.91;4328729;32;20238;-46
2022/12/23 07:43:56;;;;;;;0.07;0.07;;;;;;;12.59;93.33;94781.19;4339906;32;20211;-48
2022/12/23 07:46:22;;;;;;;0.00;0.00;;;;;;;12.54;92.33;94781.34;4333979;32;20289;-51
2022/12/23 07:48:48;;;;;;;0.07;0.07;;;;;;;12.62;92.88;94796.50;4319701;32;20205;-47
2022/12/23 07:51:15;;;;;;;0.00;0.00;;;;;;;12.70;93.01;94796.47;4339121;32;20247;-46
2022/12/23 07:53:41;;;;;;;0.10;0.00;;;;;;;12.49;93.41;94800.91;4327309;32;20211;-47
2022/12/23 07:56:07;;;;;;;0.00;0.00;;;;;;;12.53;93.91;94801.06;4330933;32;20249;-48
2022/12/23 07:58:32;;;;;;;0.10;0.10;;;;;;;12.60;93.84;94793.38;4349740;32;20212;-44
2022/12/23 08:01:03;;;;;;;0.07;0.07;;;;;;;12.61;94.09;94795.72;4351076;32;20184;-46
2022/12/23 08:03:30;;;;;;;0.00;0.00;;;;;;;12.60;93.38;94791.50;4340725;32;20204;-45
2022/12/23 08:06:01;;;;;;;0.03;0.03;;;;;;;12.65;93.76;94793.22;4326404;32;20202;-46
2022/12/23 08:08:29;;;;;;;0.10;0.10;;;;;;;12.66;92.89;94795.56;4321141;32;20228;-45
2022/12/23 08:10:58;;;;;;;0.10;0.10;;;;;;;12.62;94.02;94793.84;4278215;32;20197;-46
2022/12/23 08:13:29;;;;;;;0.00;0.00;;;;;;;12.80;92.18;94806.00;4324708;32;20405;-50
2022/12/23 08:15:57;;;;;;;0.00;0.00;;;;;;;12.82;92.57;94793.13;4337377;32;20275;-53
2022/12/23 08:18:23;;;;;;;0.00;0.00;;;;;;;12.95;92.18;94810.78;4343380;32;20255;-47
2022/12/23 08:20:59;;;;;;;1.17;0.20;;;;;;;13.20;91.28;94795.78;4330416;32;20322;-58
2022/12/23 08:23:26;;;;;;;0.00;0.00;;;;;;;13.09;91.23;94795.34;4339324;32;20204;-59
2022/12/23 08:26:09;;;;;;;0.10;0.10;;;;;;;12.65;92.05;94801.19;4333107;32;20205;-60
2022/12/23 08:28:40;;;;;;;0.10;0.10;;;;;;;12.60;92.69;94807.47;4327823;32;20333;-59
2022/12/23 08:31:16;;;;;;;0.00;0.00;;;;;;;12.00;95.34;94799.62;4336009;32;20197;-57
2022/12/23 08:33:43;;;;;;;0.00;0.00;;;;;;;11.82;96.82;94806.84;4345495;32;20205;-59
2022/12/23 08:36:13;;;;;;;0.07;0.07;;;;;;;11.76;97.63;94799.28;4349049;32;20197;-60
2022/12/23 08:38:40;;;;;;;0.20;0.20;;;;;;;11.55;98.30;94809.75;4345780;32;20212;-60
2022/12/23 08:41:10;;;;;;;0.17;0.17;;;;;;;11.57;98.60;94791.62;4339327;32;20202;-59
2022/12/23 08:43:35;;;;;;;1.40;0.10;;;;;;;11.61;98.65;94798.69;4338468;32;20230;-59
2022/12/23 08:46:03;;;;;;;0.10;0.10;;;;;;;11.56;98.64;94790.84;4337482;32;20208;-59
2022/12/23 08:48:31;;;;;;;0.00;0.00;;;;;;;11.56;98.87;94798.03;4341231;32;20259;-60
2022/12/23 08:50:56;;;;;;;0.00;0.00;;;;;;;11.46;99.27;94796.47;4331974;32;20203;-60
2022/12/23 08:53:23;;;;;;;0.00;0.00;;;;;;;11.66;98.93;94795.84;4340388;32;20205;-60
2022/12/23 08:55:49;;;;;;;0.20;0.20;;;;;;;11.59;98.99;94795.53;4330727;32;20232;-60
2022/12/23 08:58:15;;;;;;;0.10;0.10;;;;;;;11.65;99.25;94794.28;4343576;32;20284;-59
2022/12/23 09:00:42;;;;;;;0.13;0.00;;;;;;;11.64;99.14;94798.03;4324931;33;20182;-59
2022/12/23 09:03:07;;;;;;;0.00;0.00;;;;;;;11.57;99.70;94813.66;4325561;32;20332;-59
2022/12/23 09:05:37;;;;;;;0.00;0.00;;;;;;;11.83;99.13;94823.56;4345831;32;23388;-59
2022/12/23 09:08:03;;;;;;;0.10;0.10;;;;;;;11.75;99.56;94834.94;4333338;32;20191;-59
2022/12/23 09:10:29;;;;;;;0.10;0.10;;;;;;;11.81;99.32;94839.03;4342272;32;20207;-59
2022/12/23 09:12:55;;;;;;;0.00;0.00;;;;;;;11.81;99.29;94842.47;4336723;32;20261;-60
2022/12/23 09:15:20;;;;;;;0.00;0.00;;;;;;;11.75;99.62;94845.56;4338370;32;20189;-60
2022/12/23 09:17:45;;;;;;;0.03;0.03;;;;;;;11.83;100.00;94847.47;4337394;32;20200;-59
2022/12/23 09:20:11;;;;;;;0.07;0.07;;;;;;;11.78;100.00;94848.41;4342355;32;20193;-59
2022/12/23 09:22:38;;;;;;;0.20;0.20;;;;;;;11.82;100.00;94851.22;4350595;32;20192;-60
2022/12/23 09:25:04;;;;;;;0.03;0.03;;;;;;;11.99;100.00;94840.59;4337760;32;20324;-60
2022/12/23 09:27:31;;;;;;;0.33;0.33;;;;;;;12.01;100.00;94833.09;4346862;32;20208;-59
2022/12/23 09:29:57;;;;;;;0.47;0.47;;;;;;;11.91;100.00;94839.50;4349185;32;20213;-59
2022/12/23 09:32:22;;;;;;;0.10;0.10;;;;;;;11.98;100.00;94831.84;4339301;32;20212;-60
2022/12/23 09:34:47;;;;;;;0.27;0.13;;;;;;;12.08;100.00;94830.72;4337689;32;20208;-60
2022/12/23 09:37:15;;;;;;;0.07;0.07;;;;;;;12.12;99.96;94826.34;4339820;32;20198;-59
2022/12/23 09:39:42;;;;;;;0.10;0.10;;;;;;;11.97;100.00;94821.50;4350908;32;20197;-60
2022/12/23 09:42:47;;;;;;;0.10;0.10;;;;;;;11.91;100.00;94826.19;4338833;32;20208;-59
2022/12/23 09:45:15;;;;;;;0.10;0.10;;;;;;;12.00;99.95;94828.88;4336883;32;20240;-59
2022/12/23 09:47:43;;;;;;;0.10;0.10;;;;;;;12.20;99.32;94825.56;4339718;32;20237;-60
2022/12/23 09:50:27;;;;;;;0.00;0.00;;;;;;;12.07;99.11;94820.41;4313192;32;20244;-58
2022/12/23 09:53:39;;;;;;;0.30;0.30;;;;;;;12.05;98.98;94823.41;4345134;32;20193;-58
2022/12/23 09:56:17;;;;;;;0.00;0.00;;;;;;;11.95;99.61;94819.16;4329380;32;20231;-59
2022/12/23 09:59:18;;;;;;;0.30;0.30;;;;;;;11.93;100.00;94818.69;4342517;32;20231;-59
2022/12/23 10:02:02;;;;;;;0.00;0.00;;;;;;;11.90;99.76;94818.53;4307996;32;20237;-60
2022/12/23 10:04:36;;;;;;;0.10;0.10;;;;;;;12.01;99.52;94811.81;4333484;32;20235;-60
2022/12/23 10:07:04;;;;;;;0.07;0.07;;;;;;;12.01;99.69;94809.16;4331647;32;20192;-58
2022/12/23 10:09:33;;;;;;;0.10;0.10;;;;;;;12.11;99.46;94800.84;4343266;32;20182;-57
2022/12/23 10:11:59;;;;;;;0.37;0.37;;;;;;;12.23;98.54;94806.31;4342285;32;20211;-59
2022/12/23 10:14:30;;;;;;;0.20;0.20;;;;;;;12.19;98.66;94801.94;4334251;32;20263;-59
2022/12/23 10:17:00;;;;;;;0.00;0.00;;;;;;;12.38;98.01;94805.81;4334808;32;20227;-59
2022/12/23 10:19:41;;;;;;;0.00;0.00;;;;;;;12.38;98.21;94805.81;4330243;32;20198;-58
2022/12/23 10:22:14;;;;;;;0.10;0.10;;;;;;;12.61;96.91;94813.56;4338367;32;20202;-60
2022/12/23 10:24:43;;;;;;;0.10;0.10;;;;;;;12.49;97.84;94802.78;4331579;32;20260;-59
2022/12/23 10:27:37;;;;;;;0.43;0.43;;;;;;;12.52;97.64;94804.81;4336029;32;20256;-60
2022/12/23 10:30:15;;;;;;;0.83;0.83;;;;;;;12.54;97.25;94797.31;4338536;32;20223;-59
2022/12/23 10:33:03;;;;;;;0.37;0.37;;;;;;;12.62;97.36;94799.16;4340332;32;20246;-59
2022/12/23 10:36:05;;;;;;;0.53;0.10;;;;;;;12.50;97.52;94793.72;4332583;32;20188;-58
2022/12/23 10:38:46;;;;;;;0.20;0.17;;;;;;;12.45;97.62;94788.59;4327837;32;20271;-59
2022/12/23 10:41:40;;;;;;;0.00;0.00;;;;;;;12.56;97.66;94800.44;4332300;32;20208;-59
2022/12/23 10:44:32;;;;;;;1.13;0.40;;;;;;;12.55;97.83;94799.66;4340307;32;20203;-60
2022/12/23 10:47:18;;;;;;;0.20;0.20;;;;;;;12.53;98.01;94787.75;4341413;32;20196;-59
2022/12/23 10:50:00;;;;;;;0.07;0.07;;;;;;;12.44;97.92;94787.81;4352736;32;20201;-64
2022/12/23 10:52:34;;;;;;;0.37;0.37;;;;;;;12.51;97.70;94789.97;4350109;32;20193;-59
2022/12/23 10:54:59;;;;;;;0.30;0.30;;;;;;;12.47;98.20;94792.47;4335839;32;20207;-59
2022/12/23 10:57:25;;;;;;;0.17;0.17;;;;;;;12.26;99.90;94796.94;4329814;32;20236;-59
2022/12/23 10:59:50;;;;;;;0.47;0.47;;;;;;;12.33;100.00;94789.22;4345236;32;20201;-59
2022/12/23 11:02:42;;;;;;;0.37;0.37;;;;;;;12.16;100.00;94787.41;4345977;32;20239;-59
2022/12/23 11:05:14;;;;;;;0.10;0.10;;;;;;;12.17;100.00;94793.50;4346589;32;20227;-60
2022/12/23 11:07:40;;;;;;;0.30;0.30;;;;;;;12.18;100.00;94785.19;4325745;32;20212;-58
2022/12/23 11:10:19;;;;;;;0.10;0.10;;;;;;;12.12;100.00;94783.81;4300728;32;20198;-59
2022/12/23 11:12:48;;;;;;;0.17;0.17;;;;;;;12.28;100.00;94779.53;4331328;32;20189;-59
2022/12/23 11:15:38;;;;;;;0.00;0.00;;;;;;;12.32;100.00;94785.78;4343775;32;20208;-63
2022/12/23 11:18:12;;;;;;;0.20;0.10;;;;;;;12.33;100.00;94784.69;4341342;32;20446;-59
2022/12/23 11:20:41;;;;;;;0.10;0.10;;;;;;;12.38;100.00;94784.53;4342052;32;20180;-59
2022/12/23 11:23:26;;;;;;;0.00;0.00;;;;;;;12.36;100.00;94781.41;4339156;32;20190;-59
2022/12/23 11:26:08;;;;;;;0.27;0.27;;;;;;;12.43;100.00;94774.81;4328791;32;20192;-59
2022/12/23 11:28:37;;;;;;;0.10;0.10;;;;;;;12.40;100.00;94784.22;4338523;32;20266;-59
2022/12/23 11:31:10;;;;;;;0.00;0.00;;;;;;;12.34;99.93;94772.94;4341062;32;20253;-59
2022/12/23 11:33:56;;;;;;;0.20;0.13;;;;;;;12.57;99.86;94770.06;4343250;32;20213;-60
2022/12/23 11:36:26;;;;;;;0.30;0.30;;;;;;;12.56;99.37;94763.19;4337515;32;20235;-59
2022/12/23 11:39:19;;;;;;;1.07;0.93;;;;;;;12.61;98.78;94766.47;4337816;32;20210;-59
2022/12/23 11:41:47;;;;;;;0.10;0.10;;;;;;;12.67;98.39;94759.09;4342757;32;20229;-60
2022/12/23 11:44:16;;;;;;;0.50;0.40;;;;;;;12.71;97.80;94759.97;4345636;32;20251;-59
2022/12/23 11:46:41;;;;;;;0.20;0.20;;;;;;;12.57;98.19;94754.09;4342201;32;20189;-59
2022/12/23 11:49:22;;;;;;;0.33;0.33;;;;;;;12.67;97.70;94743.13;4337824;32;20184;-59
2022/12/23 11:52:05;;;;;;;0.00;0.00;;;;;;;12.68;97.39;94749.97;4340585;32;20197;-58
2022/12/23 11:54:31;;;;;;;2.40;0.33;;;;;;;12.48;98.38;94750.69;4340099;32;20190;-59
2022/12/23 11:56:59;;;;;;;1.53;1.43;;;;;;;12.51;97.93;94745.50;4335513;32;20223;-59
2022/12/23 11:59:32;;;;;;;0.20;0.20;;;;;;;12.67;97.37;94735.13;4341316;32;20228;-58
2022/12/23 12:02:01;;;;;;;0.60;0.60;;;;;;;12.55;97.82;94735.78;4341133;32;20231;-59
2022/12/23 12:04:33;;;;;;;0.67;0.40;;;;;;;12.51;97.95;94737.53;4328678;32;20194;-59
2022/12/23 12:07:00;;;;;;;0.67;0.47;;;;;;;12.66;97.75;94739.66;4327668;32;20211;-59
2022/12/23 12:09:29;;;;;;;0.20;0.20;;;;;;;12.71;97.08;94736.81;4329477;32;20223;-58
2022/12/23 12:12:06;;;;;;;0.10;0.10;;;;;;;12.70;97.07;94731.81;4310054;32;20251;-59
2022/12/23 12:14:41;;;;;;;0.10;0.10;;;;;;;12.92;96.38;94738.75;4344866;32;20202;-59
2022/12/23 12:17:15;;;;;;;0.00;0.00;;;;;;;12.97;95.59;94736.69;4323432;32;20279;-59